Home > Products > Valid Products > MTR

000
SAUS41 KOKX 041755
MTRMTP
METAR KMTP 041754Z AUTO 19007KT 28/23 A2987 RMK AO1 SLP113 T02780233
10294 20228 56003





000
SAUS41 KOKX 041752
MTRNYC
METAR KNYC 041751Z AUTO 29007KT 260V320 10SM CLR 31/16 A2987 RMK AO2
SLP104 T03110161 10311 20211 56005 $





000
SAUS41 KOKX 041656
MTRMTP
METAR KMTP 041654Z AUTO 20006KT 27/23 A2987 RMK AO1 SLP113 T02720228





000
SAUS41 KOKX 041652
MTRNYC
METAR KNYC 041651Z AUTO VRB05KT 10SM CLR 31/18 A2987 RMK AO2 SLP105
T03060178 $





000
SAUS41 KOKX 041555
MTRMTP
METAR KMTP 041554Z AUTO 19005KT 28/21 A2987 RMK AO1 SLP114 T02830211





000
SAUS41 KOKX 041553
MTRNYC
METAR KNYC 041551Z AUTO VRB03KT 10SM CLR 29/18 A2988 RMK AO2 SLP108
T02890183 $





000
SAUS41 KOKX 041455
MTRMTP
METAR KMTP 041454Z AUTO 23007KT 28/21 A2987 RMK AO1 SLP116 T02830211
53000





000
SAUS41 KOKX 041453
MTRNYC
METAR KNYC 041451Z AUTO 00000KT 10SM CLR 27/20 A2988 RMK AO2 SLP109
T02670200 55003 $





000
SAUS41 KOKX 041453
MTRNYC
METAR KNYC 041451Z AUTO 00000KT 10SM CLR 27/20 A2988 RMK AO2 SLP109
T02670200 55003 $





000
SAUS41 KOKX 041355
MTRMTP
METAR KMTP 041354Z AUTO 20005KT 26/23 A2987 RMK AO1 SLP115 T02610228





000
SAUS41 KOKX 041353
MTRNYC
METAR KNYC 041351Z AUTO 10SM CLR 25/19 A2988 RMK AO2 SLP106
T02500194 $





000
SAUS41 KOKX 041255
MTRMTP
METAR KMTP 041254Z AUTO 00000KT 24/21 A2987 RMK AO1 SLP115 T02390211





000
SAUS41 KOKX 041252
MTRNYC
METAR KNYC 041251Z AUTO VRB04KT 10SM CLR 23/18 A2987 RMK AO2 SLP106
T02330178 $





000
SAUS41 KOKX 041155
MTRMTP
METAR KMTP 041154Z AUTO 23003KT 23/19 A2987 RMK AO1 SLP115 P0001
60015 70015 T02280194 10256 20217 53005





000
SAUS41 KOKX 041153
MTRNYC
METAR KNYC 041151Z AUTO 25005KT 10SM CLR 21/18 A2989 RMK AO2 SLP112
60043 70043 T02110183 10272 20206 51008 $





000
SAUS41 KOKX 041153
MTRNYC
METAR KNYC 041151Z AUTO 25005KT 10SM CLR 21/18 A2989 RMK AO2 SLP112
60043 70043 T02110183 10272 20206 51008 $





000
SAUS41 KOKX 041055
MTRMTP
METAR KMTP 041054Z AUTO 24005KT 22/19 A2985 RMK AO1 PK WND
22029/1012 SLP108 P0014 T02220189





000
SAUS41 KOKX 041053
MTRNYC
METAR KNYC 041051Z AUTO VRB05KT 9SM CLR 21/19 A2989 RMK AO2 RAB03E15
SLP111 P0000 T02060189 $





000
SAUS41 KOKX 041053
MTRNYC
METAR KNYC 041051Z AUTO VRB05KT 9SM CLR 21/19 A2989 RMK AO2 RAB03E15
SLP111 P0000 T02060189 $





000
SAUS41 KOKX 040955
MTRMTP
METAR KMTP 040954Z AUTO 20008KT 25/22 A2988 RMK AO1 SLP116 T02500222





000
SAUS41 KOKX 040952
MTRNYC
METAR KNYC 040951Z AUTO 22003KT 6SM BR FEW090 21/19 A2987 RMK AO2
RAE0853 SLP106 P0000 T02060189 $





000
SAUS41 KOKX 040855
MTRMTP
METAR KMTP 040854Z AUTO 21007KT 25/23 A2986 RMK AO1 SLP110 T02500233
53003





000
SAUS41 KOKX 040855
MTRMTP
METAR KMTP 040854Z AUTO 21007KT 25/23 A2986 RMK AO1 SLP110 T02500233
53003





000
SAUS41 KOKX 040852
MTRNYC
METAR KNYC 040851Z AUTO 00000KT 4SM -RA BR FEW055 BKN085 BKN100
21/19 A2987 RMK AO2 PK WND 29032/0802 RAE30B36 SLP103 P0043 60043
T02110189 53005 $





000
SAUS41 KOKX 040832
MTRNYC
SPECI KNYC 040831Z AUTO 00000KT 6SM BR SCT028 SCT075 OVC110 21/18
A2989 RMK AO2 PK WND 29032/0802 RAE30 P0040 T02060183 $





000
SAUS41 KOKX 040825
MTRNYC
SPECI KNYC 040824Z AUTO 00000KT 2SM -RA BR SCT034 OVC110 21/19 A2990
RMK AO2 PK WND 29032/0802 P0040 T02060189 $





000
SAUS41 KOKX 040820
MTRNYC
SPECI KNYC 040819Z AUTO 00000KT 3/4SM RA BR BKN034 OVC110 21/18
A2992 RMK AO2 PK WND 29032/0802 P0040 T02060183 $





000
SAUS41 KOKX 040820
MTRNYC
SPECI KNYC 040819Z AUTO 00000KT 3/4SM RA BR BKN034 OVC110 21/18
A2992 RMK AO2 PK WND 29032/0802 P0040 T02060183 $





000
SAUS41 KOKX 040812
MTRNYC
SPECI KNYC 040811Z AUTO 27007G32KT 250V360 1/2SM +RA FG BKN027
BKN070 OVC110 21/18 A2993 RMK AO2 PK WND 29032/0802 P0024 T02060183
$





000
SAUS41 KOKX 040801
MTRNYC
SPECI KNYC 040800Z AUTO 28015G28KT 230V310 1 3/4SM -RA FEW050 OVC110
23/19 A2989 RMK AO2 PK WND 29028/0759 VIS 1V5 PRESRR P0002 T02280189
$





000
SAUS41 KOKX 040801
MTRNYC
SPECI KNYC 040800Z AUTO 28015G28KT 230V310 1 3/4SM -RA FEW050 OVC110
23/19 A2989 RMK AO2 PK WND 29028/0759 VIS 1V5 PRESRR P0002 T02280189
$





000
SAUS41 KOKX 040755
MTRMTP
METAR KMTP 040754Z AUTO 21007KT 25/23 A2985 RMK AO1 SLP108 T02500233





000
SAUS41 KOKX 040753
MTRNYC
METAR KNYC 040751Z AUTO 9SM -RA BKN110 24/18 A2985 RMK AO2 RAB35
SLP097 P0000 T02440183 $





000
SAUS41 KOKX 040655
MTRMTP
METAR KMTP 040654Z AUTO 22008G16KT 25/23 A2985 RMK AO1 SLP109
T02500233





000
SAUS41 KOKX 040653
MTRNYC
METAR KNYC 040651Z AUTO VRB06KT 10SM CLR 27/19 A2984 RMK AO2 SLP095
T02670189 $





000
SAUS41 KOKX 040653
MTRNYC
METAR KNYC 040651Z AUTO VRB06KT 10SM CLR 27/19 A2984 RMK AO2 SLP095
T02670189 $





000
SAUS41 KOKX 040555
MTRMTP
METAR KMTP 040554Z AUTO 21007G20KT 25/23 A2985 RMK AO1 SLP107
T02500233 10256 20244 50002





000
SAUS41 KOKX 040555
MTRMTP
METAR KMTP 040554Z AUTO 21007G20KT 25/23 A2985 RMK AO1 SLP107
T02500233 10256 20244 50002





000
SAUS41 KOKX 040553
MTRNYC
METAR KNYC 040551Z AUTO VRB03KT 10SM FEW120 27/18 A2985 RMK AO2
SLP098 T02670178 10300 20267 53004 $





000
SAUS41 KOKX 040553
MTRNYC
METAR KNYC 040551Z AUTO VRB03KT 10SM FEW120 27/18 A2985 RMK AO2
SLP098 T02670178 10300 20267 53004 $





000
SAUS41 KOKX 040455
MTRMTP
METAR KMTP 040454Z AUTO 21008G16KT 25/23 A2985 RMK AO1 SLP109
T02500233 402890228





000
SAUS41 KOKX 040452
MTRNYC
METAR KNYC 040451Z AUTO 24005KT 10SM CLR 27/17 A2984 RMK AO2 SLP094
T02720167 403220239 $





000
SAUS41 KOKX 040355
MTRMTP
METAR KMTP 040354Z AUTO 20011G18KT 25/23 A2985 RMK AO1 SLP106
T02500233





000
SAUS41 KOKX 040352
MTRNYC
METAR KNYC 040351Z AUTO 00000KT 10SM FEW120 28/16 A2984 RMK AO2
SLP094 T02830156 $





000
SAUS41 KOKX 040255
MTRMTP
METAR KMTP 040254Z AUTO 20009G16KT 25/23 A2984 RMK AO1 SLP106
T02500228 50006





000
SAUS41 KOKX 040253
MTRNYC
METAR KNYC 040251Z AUTO 10SM CLR 28/15 A2984 RMK AO2 SLP094
T02780150 51013 $





000
SAUS41 KOKX 040155
MTRMTP
METAR KMTP 040154Z AUTO VRB06KT 24/22 A2985 RMK AO1 SLP107 T02440222





000
SAUS41 KOKX 040153
MTRNYC
METAR KNYC 040151Z AUTO VRB05KT 10SM CLR 29/14 A2984 RMK AO2 SLP093
T02890139 $





000
SAUS41 KOKX 040055
MTRMTP
METAR KMTP 040054Z AUTO 20007KT 25/22 A2983 RMK AO1 SLP102 T02500222





000
SAUS41 KOKX 040055
MTRMTP
METAR KMTP 040054Z AUTO 20007KT 25/22 A2983 RMK AO1 SLP102 T02500222





000
SAUS41 KOKX 040053
MTRNYC
METAR KNYC 040051Z AUTO 22003KT 10SM CLR 29/14 A2981 RMK AO2 SLP086
T02940139 $





000
SAUS41 KOKX 032356
MTRMTP
METAR KMTP 032354Z AUTO 20008KT 25/22 A2983 RMK AO1 SLP100 T02500217
10289 20250 55001





000
SAUS41 KOKX 032352
MTRNYC
METAR KNYC 032351Z AUTO 10SM CLR 30/15 A2980 RMK AO2 SLP081
T03000150 10322 20294 53001 $





000
SAUS41 KOKX 032255
MTRMTP
METAR KMTP 032254Z AUTO 19009G16KT 26/22 A2982 RMK AO1 SLP099
T02610217





000
SAUS41 KOKX 032252
MTRNYC
METAR KNYC 032251Z AUTO VRB06KT 10SM FEW080 30/15 A2980 RMK AO2
SLP081 T03000150 $





000
SAUS41 KOKX 032252
MTRNYC
METAR KNYC 032251Z AUTO VRB06KT 10SM FEW080 30/15 A2980 RMK AO2
SLP081 T03000150 $





000
SAUS41 KOKX 032155
MTRMTP
METAR KMTP 032154Z AUTO 19008G15KT 170V230 27/22 A2981 RMK AO1
SLP095 T02670217





000
SAUS41 KOKX 032152
MTRNYC
METAR KNYC 032151Z AUTO 23007KT 190V270 10SM FEW070 30/16 A2980 RMK
AO2 SLP080 T03000161 $





000
SAUS41 KOKX 032059 COR
MTRMTP
METAR KMTP 032054Z AUTO VRB06KT 27/22 A2983 RMK AO1 SLP100 T02720222
56012





000
SAUS41 KOKX 032059 COR
MTRMTP
METAR KMTP 032054Z AUTO VRB06KT 27/22 A2983 RMK AO1 SLP100 T02720222
56012





000
SAUS41 KOKX 032057 COR
MTRMTP
METAR KMTP 032054Z AUTO VRB06KT 27/22 A2983 RMK AO1 SLP100 T02720222
56012





000
SAUS41 KOKX 032056 COR
MTRMTP
METAR KMTP 032054Z AUTO VRB06KT 27/22 A2983 RMK AO1 SLP100 T02720222
56012





000
SAUS41 KOKX 032052
MTRNYC
METAR KNYC 032051Z AUTO VRB06KT 10SM FEW080 31/16 A2980 RMK AO2
SLP080 T03060161 56009 $





000
SAUS41 KOKX 031955
MTRMTP
METAR KMTP 031954Z AUTO 19007KT 160V220 28/22 A2984 RMK AO1 SLP105
T02830222





000
SAUS41 KOKX 031953
MTRNYC
METAR KNYC 031951Z AUTO 20007KT 150V250 10SM SCT070 SCT110 31/16
A2981 RMK AO2 SLP083 T03060161 $





000
SAUS41 KOKX 031856
MTRMTP
METAR KMTP 031854Z AUTO VRB06KT 28/23 A2985 RMK AO1 SLP106 T02830228





000
SAUS41 KOKX 031853
MTRNYC
METAR KNYC 031851Z AUTO 23008G16KT 180V310 10SM CLR 32/16 A2981 RMK
AO2 SLP084 T03170156 $





000
SAUS41 KOKX 031755
MTRMTP
METAR KMTP 031754Z AUTO 20008KT 28/22 A2986 RMK AO1 SLP112 T02830217
10289 20250 58007





000
SAUS41 KOKX 031753
MTRNYC
METAR KNYC 031751Z AUTO 10SM SCT060 31/17 A2982 RMK AO2 SLP089
T03060167 10317 20244 58018 $





000
SAUS41 KOKX 031656
MTRMTP
METAR KMTP 031654Z AUTO 19007KT 28/22 A2987 RMK AO1 SLP115 T02830217





000
SAUS41 KOKX 031653
MTRNYC
METAR KNYC 031651Z AUTO 22007KT 160V270 10SM CLR 31/17 A2984 RMK AO2
SLP096 T03110172 $





000
SAUS41 KOKX 031555
MTRMTP
METAR KMTP 031554Z AUTO 19007KT 28/23 A2988 RMK AO1 SLP118 T02830228





000
SAUS41 KOKX 031553
MTRNYC
METAR KNYC 031551Z AUTO VRB05KT 10SM SCT080 30/17 A2987 RMK AO2
SLP103 T03000167 $





000
SAUS41 KOKX 031459 COR
MTRMTP
METAR KMTP 031454Z AUTO 21007KT 28/22 A2988 RMK AO1 SLP119 T02780222
56002





000
SAUS41 KOKX 031459 COR
MTRMTP
METAR KMTP 031454Z AUTO 21007KT 28/22 A2988 RMK AO1 SLP119 T02780222
56002





000
SAUS41 KOKX 031455
MTRMTP
METAR KMTP 031454Z AUTO 21007KT 28/22 A2988 RMK AO1 SLP119 T02780222
56002





000
SAUS41 KOKX 031453
MTRNYC
METAR KNYC 031451Z AUTO 22007KT 180V250 10SM CLR 28/17 A2988 RMK AO2
SLP106 T02830167 55001 $





000
SAUS41 KOKX 031355
MTRMTP
METAR KMTP 031354Z AUTO 20007KT 27/22 A2988 RMK AO1 SLP119 T02720222





000
SAUS41 KOKX 031353
MTRNYC
METAR KNYC 031351Z AUTO VRB03KT 10SM CLR 27/16 A2987 RMK AO2 SLP106
T02670161 $





000
SAUS41 KOKX 031255
MTRMTP
METAR KMTP 031254Z AUTO VRB06KT 26/22 A2989 RMK AO1 SLP119 T02610222





000
SAUS41 KOKX 031253
MTRNYC
METAR KNYC 031251Z AUTO 00000KT 10SM CLR 26/16 A2987 RMK AO2 SLP105
T02560161 $





000
SAUS41 KOKX 031155
MTRMTP
METAR KMTP 031154Z AUTO 20006KT 25/21 A2989 RMK AO1 SLP121 T02500211
10250 20228 51006





000
SAUS41 KOKX 031155
MTRMTP
METAR KMTP 031154Z AUTO 20006KT 25/21 A2989 RMK AO1 SLP121 T02500211
10250 20228 51006





000
SAUS41 KOKX 031153
MTRNYC
METAR KNYC 031151Z AUTO 00000KT 10SM CLR 25/17 A2988 RMK AO2 SLP107
T02500167 10256 20239 53001 $





000
SAUS41 KOKX 031055
MTRMTP
METAR KMTP 031054Z AUTO VRB05KT 24/21 A2988 RMK AO1 SLP119 T02390211





000
SAUS41 KOKX 031053
MTRNYC
METAR KNYC 031051Z AUTO VRB03KT 10SM CLR 24/16 A2987 RMK AO2 SLP105
T02390161 $





000
SAUS41 KOKX 030955
MTRMTP
METAR KMTP 030954Z AUTO 21005KT 23/21 A2988 RMK AO1 SLP119 T02330211





000
SAUS41 KOKX 030953
MTRNYC
METAR KNYC 030951Z AUTO VRB03KT 10SM FEW070 24/16 A2987 RMK AO2
SLP105 T02390156 $





000
SAUS41 KOKX 030855
MTRMTP
METAR KMTP 030854Z AUTO 21006KT 23/22 A2987 RMK AO1 SLP114 T02330217
56004





000
SAUS41 KOKX 030852
MTRNYC
METAR KNYC 030851Z AUTO VRB04KT 10SM CLR 24/15 A2987 RMK AO2 SLP106
T02440150 55003 $





000
SAUS41 KOKX 030852
MTRNYC
METAR KNYC 030851Z AUTO VRB04KT 10SM CLR 24/15 A2987 RMK AO2 SLP106
T02440150 55003 $





000
SAUS41 KOKX 030755
MTRMTP
METAR KMTP 030754Z AUTO 20005KT 23/21 A2987 RMK AO1 SLP116 T02280211





000
SAUS41 KOKX 030755
MTRMTP
METAR KMTP 030754Z AUTO 20005KT 23/21 A2987 RMK AO1 SLP116 T02280211





000
SAUS41 KOKX 030753
MTRNYC
METAR KNYC 030751Z AUTO VRB03KT 10SM CLR 25/14 A2987 RMK AO2 SLP104
T02500144 $





000
SAUS41 KOKX 030753
MTRNYC
METAR KNYC 030751Z AUTO VRB03KT 10SM CLR 25/14 A2987 RMK AO2 SLP104
T02500144 $





000
SAUS41 KOKX 030655
MTRMTP
METAR KMTP 030654Z AUTO 19004KT 23/21 A2987 RMK AO1 SLP115 T02330206





000
SAUS41 KOKX 030652
MTRNYC
METAR KNYC 030651Z AUTO VRB05KT 10SM CLR 25/14 A2987 RMK AO2 SLP106
T02500139 $





000
SAUS41 KOKX 030555
MTRMTP
METAR KMTP 030554Z AUTO 21005KT 24/21 A2988 RMK AO1 SLP118 T02440211
10244 20233 56008





000
SAUS41 KOKX 030553
MTRNYC
METAR KNYC 030551Z AUTO 23004KT 10SM CLR 26/14 A2989 RMK AO2 SLP110
T02560139 10272 20250 58002 $





000
SAUS41 KOKX 030456
MTRMTP
METAR KMTP 030454Z AUTO 19006KT 24/22 A2989 RMK AO1 SLP121 T02390222
402940183





000
SAUS41 KOKX 030453
MTRNYC
METAR KNYC 030451Z AUTO VRB04KT 10SM CLR 26/13 A2990 RMK AO2 SLP113
T02610128 403170217 $





000
SAUS41 KOKX 030453
MTRNYC
METAR KNYC 030451Z AUTO VRB04KT 10SM CLR 26/13 A2990 RMK AO2 SLP113
T02610128 403170217 $





000
SAUS41 KOKX 030355
MTRMTP
METAR KMTP 030354Z AUTO 19005KT 24/22 A2989 RMK AO1 SLP121 T02390217





000
SAUS41 KOKX 030355
MTRMTP
METAR KMTP 030354Z AUTO 19005KT 24/22 A2989 RMK AO1 SLP121 T02390217





000
SAUS41 KOKX 030353
MTRNYC
METAR KNYC 030351Z AUTO 00000KT 10SM CLR 26/13 A2989 RMK AO2 SLP111
T02610133 $





000
SAUS41 KOKX 030255
MTRMTP
METAR KMTP 030254Z AUTO VRB03KT 23/22 A2991 RMK AO1 SLP126 T02330217
58000





000
SAUS41 KOKX 030253
MTRNYC
METAR KNYC 030251Z AUTO 00000KT 10SM CLR 26/16 A2989 RMK AO2 SLP112
T02560161 58003 $





000
SAUS41 KOKX 030253
MTRNYC
METAR KNYC 030251Z AUTO 00000KT 10SM CLR 26/16 A2989 RMK AO2 SLP112
T02560161 58003 $





000
SAUS41 KOKX 030155
MTRMTP
METAR KMTP 030154Z AUTO VRB03KT 23/21 A2993 RMK AO1 SLP135 T02330211





000
SAUS41 KOKX 030152
MTRNYC
METAR KNYC 030151Z AUTO 00000KT 10SM CLR 26/16 A2991 RMK AO2 SLP118
T02560161 $





000
SAUS41 KOKX 030055
MTRMTP
METAR KMTP 030054Z AUTO VRB03KT 24/22 A2992 RMK AO1 SLP130 T02390217





000
SAUS41 KOKX 030055
MTRMTP
METAR KMTP 030054Z AUTO VRB03KT 24/22 A2992 RMK AO1 SLP130 T02390217





000
SAUS41 KOKX 030052
MTRNYC
METAR KNYC 030051Z AUTO 00000KT 10SM CLR 26/16 A2991 RMK AO2 SLP118
T02610161 $





000
SAUS41 KOKX 030052
MTRNYC
METAR KNYC 030051Z AUTO 00000KT 10SM CLR 26/16 A2991 RMK AO2 SLP118
T02610161 $





000
SAUS41 KOKX 022355
MTRMTP
METAR KMTP 022354Z AUTO VRB03KT 24/21 A2991 RMK AO1 SLP127 T02440206
10294 20244 56008





000
SAUS41 KOKX 022355
MTRMTP
METAR KMTP 022354Z AUTO VRB03KT 24/21 A2991 RMK AO1 SLP127 T02440206
10294 20244 56008





000
SAUS41 KOKX 022353
MTRNYC
METAR KNYC 022351Z AUTO 00000KT 10SM CLR 27/16 A2990 RMK AO2 SLP115
T02720161 10317 20272 55002 $





000
SAUS41 KOKX 022353
MTRNYC
METAR KNYC 022351Z AUTO 00000KT 10SM CLR 27/16 A2990 RMK AO2 SLP115
T02720161 10317 20272 55002 $





000
SAUS41 KOKX 022255
MTRMTP
METAR KMTP 022254Z AUTO VRB04KT 26/20 A2991 RMK AO1 SLP129 T02560200





000
SAUS41 KOKX 022253
MTRNYC
METAR KNYC 022251Z AUTO VRB03KT 10SM CLR 28/14 A2990 RMK AO2 SLP113
T02830144 $





000
SAUS41 KOKX 022155
MTRMTP
METAR KMTP 022154Z AUTO 19005KT 27/19 A2992 RMK AO1 SLP131 T02670189





000
SAUS41 KOKX 022153
MTRNYC
METAR KNYC 022151Z AUTO VRB04KT 10SM CLR 28/15 A2991 RMK AO2 SLP117
T02830150 $





000
SAUS41 KOKX 022055
MTRMTP
METAR KMTP 022054Z AUTO VRB05KT 27/18 A2993 RMK AO1 SLP134 T02720178
56004





000
SAUS41 KOKX 022052
MTRNYC
METAR KNYC 022051Z AUTO 10SM CLR 29/15 A2991 RMK AO2 SLP117
T02940150 56005 $





000
SAUS41 KOKX 022052
MTRNYC
METAR KNYC 022051Z AUTO 10SM CLR 29/15 A2991 RMK AO2 SLP117
T02940150 56005 $





000
SAUS41 KOKX 021955
MTRMTP
METAR KMTP 021954Z AUTO 20006KT 28/17 A2993 RMK AO1 SLP135 T02780172





000
SAUS41 KOKX 021955
MTRMTP
METAR KMTP 021954Z AUTO 20006KT 28/17 A2993 RMK AO1 SLP135 T02780172





000
SAUS41 KOKX 021953
MTRNYC
METAR KNYC 021951Z AUTO VRB03KT 10SM SCT095 30/13 A2991 RMK AO2
SLP119 T03000133 $





000
SAUS41 KOKX 021855
MTRMTP
METAR KMTP 021854Z AUTO 19005KT 28/16 A2992 RMK AO1 SLP133 T02830161





000
SAUS41 KOKX 021855
MTRMTP
METAR KMTP 021854Z AUTO 19005KT 28/16 A2992 RMK AO1 SLP133 T02830161





000
SAUS41 KOKX 021852
MTRNYC
METAR KNYC 021851Z AUTO 22005KT 10SM CLR 31/11 A2991 RMK AO2 SLP119
T03110106 $





000
SAUS41 KOKX 021852
MTRNYC
METAR KNYC 021851Z AUTO 22005KT 10SM CLR 31/11 A2991 RMK AO2 SLP119
T03110106 $





000
SAUS41 KOKX 021755
MTRMTP
METAR KMTP 021754Z AUTO VRB06KT 29/13 A2994 RMK AO1 SLP138 T02890133
10294 20239 58002





000
SAUS41 KOKX 021755
MTRMTP
METAR KMTP 021754Z AUTO VRB06KT 29/13 A2994 RMK AO1 SLP138 T02890133
10294 20239 58002





000
SAUS41 KOKX 021753
MTRNYC
METAR KNYC 021751Z AUTO VRB05KT 10SM FEW090 31/11 A2992 RMK AO2
SLP122 T03110106 10311 20233 58013 $





000
SAUS41 KOKX 021656
MTRMTP
METAR KMTP 021654Z AUTO 17005KT 28/13 A2995 RMK AO1 SLP141 T02780133





000
SAUS41 KOKX 021653
MTRNYC
METAR KNYC 021651Z AUTO 10SM CLR 31/12 A2994 RMK AO2 SLP129
T03110122 $





000
SAUS41 KOKX 021555
MTRMTP
METAR KMTP 021554Z AUTO 35003KT 27/14 A2995 RMK AO1 SLP143 T02720139





000
SAUS41 KOKX 021553
MTRNYC
METAR KNYC 021551Z AUTO 23003KT 10SM CLR 30/12 A2996 RMK AO2 SLP134
T03000122 $





000
SAUS41 KOKX 021455
MTRMTP
METAR KMTP 021454Z AUTO VRB03KT 28/15 A2995 RMK AO1 SLP141 T02780150
51011





000
SAUS41 KOKX 021453
MTRNYC
METAR KNYC 021451Z AUTO VRB05KT 10SM CLR 28/13 A2996 RMK AO2 SLP135
T02780128 51007 $





000
SAUS41 KOKX 021355
MTRMTP
METAR KMTP 021354Z AUTO 00000KT 26/17 A2994 RMK AO1 SLP137 T02610167





000
SAUS41 KOKX 021355
MTRMTP
METAR KMTP 021354Z AUTO 00000KT 26/17 A2994 RMK AO1 SLP137 T02610167





000
SAUS41 KOKX 021352
MTRNYC
METAR KNYC 021351Z AUTO 00000KT 10SM CLR 27/14 A2995 RMK AO2 SLP132
T02670144 $





000
SAUS41 KOKX 021255
MTRMTP
METAR KMTP 021254Z AUTO 00000KT 26/17 A2993 RMK AO1 SLP135 T02560167





000
SAUS41 KOKX 021255
MTRMTP
METAR KMTP 021254Z AUTO 00000KT 26/17 A2993 RMK AO1 SLP135 T02560167





000
SAUS41 KOKX 021253
MTRNYC
METAR KNYC 021251Z AUTO 00000KT 10SM CLR 24/14 A2995 RMK AO2 SLP131
T02440139 $





000
SAUS41 KOKX 021155
MTRMTP
METAR KMTP 021154Z AUTO 00000KT 24/16 A2991 RMK AO1 SLP129 T02390161
10239 20183 51014





000
SAUS41 KOKX 021155
MTRMTP
METAR KMTP 021154Z AUTO 00000KT 24/16 A2991 RMK AO1 SLP129 T02390161
10239 20183 51014





000
SAUS41 KOKX 021153
MTRNYC
METAR KNYC 021151Z AUTO 00000KT 10SM CLR 23/14 A2994 RMK AO2 SLP128
T02330139 10244 20217 51012 $





000
SAUS41 KOKX 021055
MTRMTP
METAR KMTP 021054Z AUTO 00000KT 21/18 A2991 RMK AO1 SLP129 T02060183





000
SAUS41 KOKX 021052
MTRNYC
METAR KNYC 021051Z AUTO 00000KT 10SM CLR 22/15 A2993 RMK AO2 SLP125
T02170150 $





000
SAUS41 KOKX 020955
MTRMTP
METAR KMTP 020954Z AUTO 00000KT 18/16 A2990 RMK AO1 SLP123 T01830156





000
SAUS41 KOKX 020953
MTRNYC
METAR KNYC 020951Z AUTO 00000KT 10SM CLR 22/13 A2992 RMK AO2 SLP120
T02170133 $





000
SAUS41 KOKX 020953
MTRNYC
METAR KNYC 020951Z AUTO 00000KT 10SM CLR 22/13 A2992 RMK AO2 SLP120
T02170133 $





000
SAUS41 KOKX 020855
MTRMTP
METAR KMTP 020854Z AUTO 30003KT 22/17 A2987 RMK AO1 SLP115 T02170172
53004





000
SAUS41 KOKX 020852
MTRNYC
METAR KNYC 020851Z AUTO 00000KT 10SM CLR 23/13 A2990 RMK AO2 SLP115
T02330133 50002 $





000
SAUS41 KOKX 020755
MTRMTP
METAR KMTP 020754Z AUTO 30004KT 22/18 A2987 RMK AO1 SLP114 T02220178





000
SAUS41 KOKX 020753
MTRNYC
METAR KNYC 020751Z AUTO 00000KT 10SM CLR 23/13 A2990 RMK AO2 SLP116
T02330128





000
SAUS41 KOKX 020753
MTRNYC
METAR KNYC 020751Z AUTO 00000KT 10SM CLR 23/13 A2990 RMK AO2 SLP116
T02330128





000
SAUS41 KOKX 020655
MTRMTP
METAR KMTP 020654Z AUTO 00000KT 23/18 A2987 RMK AO1 SLP113 T02280183





000
SAUS41 KOKX 020653
MTRNYC
METAR KNYC 020651Z AUTO 29004KT 10SM CLR 24/13 A2990 RMK AO2 SLP114
T02390128





000
SAUS41 KOKX 020653
MTRNYC
METAR KNYC 020651Z AUTO 29004KT 10SM CLR 24/13 A2990 RMK AO2 SLP114
T02390128





000
SAUS41 KOKX 020555
MTRMTP
METAR KMTP 020554Z AUTO 27004KT 23/18 A2986 RMK AO1 SLP111 T02330178
10261 20233 53006





000
SAUS41 KOKX 020555
MTRMTP
METAR KMTP 020554Z AUTO 27004KT 23/18 A2986 RMK AO1 SLP111 T02330178
10261 20233 53006





000
SAUS41 KOKX 020553
MTRNYC
METAR KNYC 020551Z AUTO 28003KT 10SM FEW120 24/13 A2990 RMK AO2
SLP113 T02440128 10289 20244 53004





000
SAUS41 KOKX 020553
MTRNYC
METAR KNYC 020551Z AUTO 28003KT 10SM FEW120 24/13 A2990 RMK AO2
SLP113 T02440128 10289 20244 53004





000
SAUS41 KOKX 020455
MTRMTP
METAR KMTP 020454Z AUTO 28005KT 24/19 A2986 RMK AO1 SLP110 T02390189
403000228





000
SAUS41 KOKX 020453
MTRNYC
METAR KNYC 020451Z AUTO 00000KT 10SM BKN120 25/12 A2989 RMK AO2
SLP110 T02500122 403170239





000
SAUS41 KOKX 020355
MTRMTP
METAR KMTP 020354Z AUTO 25004KT 25/18 A2984 RMK AO1 SLP106 T02500183





000
SAUS41 KOKX 020353
MTRNYC
METAR KNYC 020351Z AUTO 00000KT 10SM CLR 26/12 A2988 RMK AO2 SLP108
T02560122





000
SAUS41 KOKX 020255
MTRMTP
METAR KMTP 020254Z AUTO 23004KT 26/18 A2984 RMK AO1 SLP105 T02560178
51015





000
SAUS41 KOKX 020253
MTRNYC
METAR KNYC 020251Z AUTO VRB04KT 10SM CLR 26/13 A2988 RMK AO2 SLP109
T02610128 51018





000
SAUS41 KOKX 020253
MTRNYC
METAR KNYC 020251Z AUTO VRB04KT 10SM CLR 26/13 A2988 RMK AO2 SLP109
T02610128 51018





000
SAUS41 KOKX 020155
MTRMTP
METAR KMTP 020154Z AUTO 23005KT 25/20 A2983 RMK AO1 SLP102 T02500200





000
SAUS41 KOKX 020152
MTRNYC
METAR KNYC 020151Z AUTO 27003KT 10SM CLR 27/13 A2987 RMK AO2 SLP106
T02720133





000
SAUS41 KOKX 020055
MTRMTP
METAR KMTP 020054Z AUTO VRB03KT 24/20 A2982 RMK AO1 SLP097 T02440200





000
SAUS41 KOKX 020052
MTRNYC
METAR KNYC 020051Z AUTO VRB03KT 10SM CLR 27/13 A2985 RMK AO2 SLP097
T02720133





000
SAUS41 KOKX 020052
MTRNYC
METAR KNYC 020051Z AUTO VRB03KT 10SM CLR 27/13 A2985 RMK AO2 SLP097
T02720133





000
SAUS41 KOKX 012355
MTRMTP
METAR KMTP 012354Z AUTO 22005KT 26/20 A2980 RMK AO1 SLP091 T02610200
10300 20261 53010





000
SAUS41 KOKX 012353
MTRNYC
METAR KNYC 012351Z AUTO 29008KT 10SM CLR 29/13 A2983 RMK AO2 SLP091
T02890128 10317 20289 53011





000
SAUS41 KOKX 012353
MTRNYC
METAR KNYC 012351Z AUTO 29008KT 10SM CLR 29/13 A2983 RMK AO2 SLP091
T02890128 10317 20289 53011





000
SAUS41 KOKX 012255
MTRMTP
METAR KMTP 012254Z AUTO 22005KT 27/20 A2978 RMK AO1 SLP084 T02720200





000
SAUS41 KOKX 012253
MTRNYC
METAR KNYC 012251Z AUTO VRB04KT 10SM FEW120 29/13 A2981 RMK AO2
SLP085 T02940133





000
SAUS41 KOKX 012155
MTRMTP
METAR KMTP 012154Z AUTO 22008G16KT 28/20 A2977 RMK AO1 SLP081
T02780200





000
SAUS41 KOKX 012152
MTRNYC
METAR KNYC 012151Z AUTO VRB05KT 10SM SCT075 BKN120 30/13 A2980 RMK
AO2 SLP082 T03000133





000
SAUS41 KOKX 012055
MTRMTP
METAR KMTP 012054Z AUTO 22006KT 28/20 A2977 RMK AO1 SLP080 T02830200
56007





000
SAUS41 KOKX 012052
MTRNYC
METAR KNYC 012051Z AUTO VRB04KT 10SM FEW120 29/14 A2980 RMK AO2
SLP080 T02890139 55006





000
SAUS41 KOKX 011955
MTRMTP
METAR KMTP 011954Z AUTO 22006KT 28/21 A2977 RMK AO1 SLP081 T02830206





000
SAUS41 KOKX 011953
MTRNYC
METAR KNYC 011951Z AUTO 29007KT 10SM SCT075 SCT090 31/14 A2979 RMK
AO2 SLP079 T03060139





000
SAUS41 KOKX 011953
MTRNYC
METAR KNYC 011951Z AUTO 29007KT 10SM SCT075 SCT090 31/14 A2979 RMK
AO2 SLP079 T03060139





000
SAUS41 KOKX 011855
MTRMTP
METAR KMTP 011854Z AUTO 20006KT 30/21 A2978 RMK AO1 SLP082 T03000206





000
SAUS41 KOKX 011855
MTRMTP
METAR KMTP 011854Z AUTO 20006KT 30/21 A2978 RMK AO1 SLP082 T03000206





000
SAUS41 KOKX 011852
MTRNYC
METAR KNYC 011851Z AUTO 10SM FEW070 31/13 A2980 RMK AO2 SLP081
T03110133





    US Dept of Commerce
    National Oceanic and Atmospheric Administration
    National Weather Service
    1325 East West Highway
    Silver Spring, MD 20910
    Page Author: NWS Internet Services Team
Disclaimer
Information Quality
Credits
Glossary
Privacy Policy
Freedom of Information Act (FOIA)
About Us
Career Opportunities